sensor_id;sensor_type;location;lat;lon;timestamp;P1;durP1;ratioP1;P2;durP2;ratioP2
69985;SDS011;57328;52.054;5.294;2024-03-22T00:04:34;40.50;;;18.10;;
69985;SDS011;57328;52.054;5.294;2024-03-22T00:07:00;45.13;;;18.00;;
69985;SDS011;57328;52.054;5.294;2024-03-22T00:09:28;40.78;;;17.58;;
69985;SDS011;57328;52.054;5.294;2024-03-22T00:11:54;41.63;;;17.23;;
69985;SDS011;57328;52.054;5.294;2024-03-22T00:14:20;41.88;;;19.00;;
69985;SDS011;57328;52.054;5.294;2024-03-22T00:16:46;44.38;;;18.35;;
69985;SDS011;57328;52.054;5.294;2024-03-22T00:19:13;43.30;;;19.15;;
69985;SDS011;57328;52.054;5.294;2024-03-22T00:21:39;43.58;;;18.10;;
69985;SDS011;57328;52.054;5.294;2024-03-22T00:24:06;44.17;;;18.88;;
69985;SDS011;57328;52.054;5.294;2024-03-22T00:26:32;44.78;;;18.52;;
69985;SDS011;57328;52.054;5.294;2024-03-22T00:28:58;50.00;;;19.23;;
69985;SDS011;57328;52.054;5.294;2024-03-22T00:31:25;43.72;;;18.40;;
69985;SDS011;57328;52.054;5.294;2024-03-22T00:33:51;46.70;;;18.83;;
69985;SDS011;57328;52.054;5.294;2024-03-22T00:36:17;46.90;;;19.35;;
69985;SDS011;57328;52.054;5.294;2024-03-22T00:38:43;46.83;;;18.45;;
69985;SDS011;57328;52.054;5.294;2024-03-22T00:41:10;45.80;;;19.15;;
69985;SDS011;57328;52.054;5.294;2024-03-22T00:43:36;51.42;;;21.42;;
69985;SDS011;57328;52.054;5.294;2024-03-22T00:46:02;54.17;;;19.83;;
69985;SDS011;57328;52.054;5.294;2024-03-22T00:48:29;51.47;;;20.30;;
69985;SDS011;57328;52.054;5.294;2024-03-22T00:50:55;48.22;;;20.40;;
69985;SDS011;57328;52.054;5.294;2024-03-22T00:53:21;47.88;;;19.17;;
69985;SDS011;57328;52.054;5.294;2024-03-22T00:55:47;47.08;;;20.15;;
69985;SDS011;57328;52.054;5.294;2024-03-22T00:58:19;50.90;;;19.85;;
69985;SDS011;57328;52.054;5.294;2024-03-22T01:00:46;54.10;;;20.83;;
69985;SDS011;57328;52.054;5.294;2024-03-22T01:03:12;50.38;;;20.70;;
69985;SDS011;57328;52.054;5.294;2024-03-22T01:05:39;53.97;;;22.15;;
69985;SDS011;57328;52.054;5.294;2024-03-22T01:08:07;45.90;;;19.65;;
69985;SDS011;57328;52.054;5.294;2024-03-22T01:10:33;52.45;;;20.55;;
69985;SDS011;57328;52.054;5.294;2024-03-22T01:13:00;52.22;;;20.77;;
69985;SDS011;57328;52.054;5.294;2024-03-22T01:15:26;51.00;;;20.10;;
69985;SDS011;57328;52.054;5.294;2024-03-22T01:17:52;54.75;;;21.17;;
69985;SDS011;57328;52.054;5.294;2024-03-22T01:20:19;52.42;;;21.38;;
69985;SDS011;57328;52.054;5.294;2024-03-22T01:22:45;54.38;;;21.92;;
69985;SDS011;57328;52.054;5.294;2024-03-22T01:25:12;57.55;;;22.63;;
69985;SDS011;57328;52.054;5.294;2024-03-22T01:27:38;54.17;;;21.70;;
69985;SDS011;57328;52.054;5.294;2024-03-22T01:30:04;52.08;;;21.30;;
69985;SDS011;57328;52.054;5.294;2024-03-22T01:32:31;54.53;;;21.38;;
69985;SDS011;57328;52.054;5.294;2024-03-22T01:34:57;54.15;;;21.67;;
69985;SDS011;57328;52.054;5.294;2024-03-22T01:37:23;58.88;;;22.73;;
69985;SDS011;57328;52.054;5.294;2024-03-22T01:39:50;55.78;;;21.65;;
69985;SDS011;57328;52.054;5.294;2024-03-22T01:42:16;53.92;;;23.42;;
69985;SDS011;57328;52.054;5.294;2024-03-22T01:44:42;58.75;;;22.10;;
69985;SDS011;57328;52.054;5.294;2024-03-22T01:47:08;62.33;;;22.60;;
69985;SDS011;57328;52.054;5.294;2024-03-22T01:49:34;54.70;;;22.42;;
69985;SDS011;57328;52.054;5.294;2024-03-22T01:52:01;55.88;;;22.70;;
69985;SDS011;57328;52.054;5.294;2024-03-22T01:54:28;55.72;;;22.85;;
69985;SDS011;57328;52.054;5.294;2024-03-22T01:56:55;54.70;;;21.88;;
69985;SDS011;57328;52.054;5.294;2024-03-22T01:59:21;54.03;;;20.90;;
69985;SDS011;57328;52.054;5.294;2024-03-22T02:01:48;54.83;;;23.00;;
69985;SDS011;57328;52.054;5.294;2024-03-22T02:04:14;58.60;;;22.05;;
69985;SDS011;57328;52.054;5.294;2024-03-22T02:06:40;52.45;;;22.60;;
69985;SDS011;57328;52.054;5.294;2024-03-22T02:09:06;48.47;;;21.27;;
69985;SDS011;57328;52.054;5.294;2024-03-22T02:11:34;51.58;;;22.65;;
69985;SDS011;57328;52.054;5.294;2024-03-22T02:14:03;57.25;;;22.15;;
69985;SDS011;57328;52.054;5.294;2024-03-22T02:16:29;57.45;;;21.05;;
69985;SDS011;57328;52.054;5.294;2024-03-22T02:18:55;53.42;;;21.17;;
69985;SDS011;57328;52.054;5.294;2024-03-22T02:21:21;45.80;;;20.20;;
69985;SDS011;57328;52.054;5.294;2024-03-22T02:23:48;50.58;;;20.33;;
69985;SDS011;57328;52.054;5.294;2024-03-22T02:26:14;48.10;;;19.88;;
69985;SDS011;57328;52.054;5.294;2024-03-22T02:28:40;36.55;;;16.00;;
69985;SDS011;57328;52.054;5.294;2024-03-22T02:31:06;48.15;;;19.58;;
69985;SDS011;57328;52.054;5.294;2024-03-22T02:33:32;46.55;;;18.73;;
69985;SDS011;57328;52.054;5.294;2024-03-22T02:35:59;51.95;;;20.60;;
69985;SDS011;57328;52.054;5.294;2024-03-22T02:38:25;45.00;;;18.92;;
69985;SDS011;57328;52.054;5.294;2024-03-22T02:40:52;44.55;;;17.75;;
69985;SDS011;57328;52.054;5.294;2024-03-22T02:43:18;54.38;;;20.55;;
69985;SDS011;57328;52.054;5.294;2024-03-22T02:45:46;50.38;;;21.70;;
69985;SDS011;57328;52.054;5.294;2024-03-22T02:48:13;48.85;;;19.95;;
69985;SDS011;57328;52.054;5.294;2024-03-22T02:50:39;45.90;;;19.92;;
69985;SDS011;57328;52.054;5.294;2024-03-22T02:53:05;51.95;;;21.23;;
69985;SDS011;57328;52.054;5.294;2024-03-22T02:55:38;53.00;;;21.20;;
69985;SDS011;57328;52.054;5.294;2024-03-22T02:58:05;50.38;;;20.15;;
69985;SDS011;57328;52.054;5.294;2024-03-22T03:00:35;52.67;;;21.02;;
69985;SDS011;57328;52.054;5.294;2024-03-22T03:03:01;55.47;;;22.50;;
69985;SDS011;57328;52.054;5.294;2024-03-22T03:05:28;61.33;;;22.90;;
69985;SDS011;57328;52.054;5.294;2024-03-22T03:07:54;50.78;;;20.20;;
69985;SDS011;57328;52.054;5.294;2024-03-22T03:10:20;56.58;;;20.75;;
69985;SDS011;57328;52.054;5.294;2024-03-22T03:12:46;55.17;;;20.98;;
69985;SDS011;57328;52.054;5.294;2024-03-22T03:15:12;57.67;;;21.33;;
69985;SDS011;57328;52.054;5.294;2024-03-22T03:17:39;53.65;;;21.48;;
69985;SDS011;57328;52.054;5.294;2024-03-22T03:20:05;49.00;;;20.15;;
69985;SDS011;57328;52.054;5.294;2024-03-22T03:22:36;47.67;;;18.75;;
69985;SDS011;57328;52.054;5.294;2024-03-22T03:25:03;54.90;;;20.83;;
69985;SDS011;57328;52.054;5.294;2024-03-22T03:27:30;55.17;;;20.77;;
69985;SDS011;57328;52.054;5.294;2024-03-22T03:29:56;57.97;;;21.00;;
69985;SDS011;57328;52.054;5.294;2024-03-22T03:32:22;53.63;;;20.02;;
69985;SDS011;57328;52.054;5.294;2024-03-22T03:34:48;50.63;;;19.90;;
69985;SDS011;57328;52.054;5.294;2024-03-22T03:37:14;54.35;;;20.25;;
69985;SDS011;57328;52.054;5.294;2024-03-22T03:39:41;51.40;;;19.80;;
69985;SDS011;57328;52.054;5.294;2024-03-22T03:42:07;50.20;;;18.08;;
69985;SDS011;57328;52.054;5.294;2024-03-22T03:44:33;42.38;;;16.30;;
69985;SDS011;57328;52.054;5.294;2024-03-22T03:47:00;41.80;;;14.38;;
69985;SDS011;57328;52.054;5.294;2024-03-22T03:49:26;49.38;;;18.08;;
69985;SDS011;57328;52.054;5.294;2024-03-22T03:51:52;41.60;;;15.32;;
69985;SDS011;57328;52.054;5.294;2024-03-22T03:54:19;50.90;;;18.70;;
69985;SDS011;57328;52.054;5.294;2024-03-22T03:56:45;53.25;;;19.58;;
69985;SDS011;57328;52.054;5.294;2024-03-22T03:59:11;49.90;;;19.52;;
69985;SDS011;57328;52.054;5.294;2024-03-22T04:01:37;47.67;;;17.25;;
69985;SDS011;57328;52.054;5.294;2024-03-22T04:04:03;61.75;;;20.88;;
69985;SDS011;57328;52.054;5.294;2024-03-22T04:06:30;51.83;;;19.48;;
69985;SDS011;57328;52.054;5.294;2024-03-22T04:08:56;57.13;;;20.13;;
69985;SDS011;57328;52.054;5.294;2024-03-22T04:11:23;53.03;;;20.02;;
69985;SDS011;57328;52.054;5.294;2024-03-22T04:13:49;57.15;;;20.13;;
69985;SDS011;57328;52.054;5.294;2024-03-22T04:16:15;56.00;;;19.05;;
69985;SDS011;57328;52.054;5.294;2024-03-22T04:18:41;54.20;;;19.80;;
69985;SDS011;57328;52.054;5.294;2024-03-22T04:21:08;52.25;;;19.85;;
69985;SDS011;57328;52.054;5.294;2024-03-22T04:23:34;59.05;;;21.00;;
69985;SDS011;57328;52.054;5.294;2024-03-22T04:26:00;60.92;;;21.55;;
69985;SDS011;57328;52.054;5.294;2024-03-22T04:28:28;56.88;;;20.75;;
69985;SDS011;57328;52.054;5.294;2024-03-22T04:30:55;55.08;;;19.73;;
69985;SDS011;57328;52.054;5.294;2024-03-22T04:33:21;56.95;;;21.48;;
69985;SDS011;57328;52.054;5.294;2024-03-22T04:35:48;61.38;;;21.25;;
69985;SDS011;57328;52.054;5.294;2024-03-22T04:38:14;57.20;;;21.13;;
69985;SDS011;57328;52.054;5.294;2024-03-22T04:40:41;59.30;;;21.77;;
69985;SDS011;57328;52.054;5.294;2024-03-22T04:43:07;56.47;;;19.60;;
69985;SDS011;57328;52.054;5.294;2024-03-22T04:45:34;55.00;;;20.88;;
69985;SDS011;57328;52.054;5.294;2024-03-22T04:48:03;63.25;;;22.98;;
69985;SDS011;57328;52.054;5.294;2024-03-22T04:50:30;59.05;;;21.15;;
69985;SDS011;57328;52.054;5.294;2024-03-22T04:52:56;53.75;;;20.58;;
69985;SDS011;57328;52.054;5.294;2024-03-22T04:55:23;58.05;;;22.45;;
69985;SDS011;57328;52.054;5.294;2024-03-22T04:57:49;53.25;;;20.85;;
69985;SDS011;57328;52.054;5.294;2024-03-22T05:00:16;56.75;;;20.65;;
69985;SDS011;57328;52.054;5.294;2024-03-22T05:02:42;54.38;;;19.17;;
69985;SDS011;57328;52.054;5.294;2024-03-22T05:05:08;51.38;;;21.88;;
69985;SDS011;57328;52.054;5.294;2024-03-22T05:07:35;51.35;;;18.92;;
69985;SDS011;57328;52.054;5.294;2024-03-22T05:10:01;52.22;;;21.85;;
69985;SDS011;57328;52.054;5.294;2024-03-22T05:12:28;51.35;;;19.80;;
69985;SDS011;57328;52.054;5.294;2024-03-22T05:14:55;49.47;;;19.42;;
69985;SDS011;57328;52.054;5.294;2024-03-22T05:17:21;47.40;;;19.05;;
69985;SDS011;57328;52.054;5.294;2024-03-22T05:19:47;52.00;;;19.13;;
69985;SDS011;57328;52.054;5.294;2024-03-22T05:22:13;55.72;;;20.83;;
69985;SDS011;57328;52.054;5.294;2024-03-22T05:24:40;44.90;;;18.80;;
69985;SDS011;57328;52.054;5.294;2024-03-22T05:27:06;49.63;;;19.30;;
69985;SDS011;57328;52.054;5.294;2024-03-22T05:29:32;51.05;;;19.63;;
69985;SDS011;57328;52.054;5.294;2024-03-22T05:31:59;51.83;;;20.40;;
69985;SDS011;57328;52.054;5.294;2024-03-22T05:34:25;48.67;;;18.92;;
69985;SDS011;57328;52.054;5.294;2024-03-22T05:36:52;46.75;;;18.35;;
69985;SDS011;57328;52.054;5.294;2024-03-22T05:39:18;51.30;;;20.10;;
69985;SDS011;57328;52.054;5.294;2024-03-22T05:41:44;51.55;;;19.58;;
69985;SDS011;57328;52.054;5.294;2024-03-22T05:44:11;51.67;;;18.77;;
69985;SDS011;57328;52.054;5.294;2024-03-22T05:46:37;48.83;;;18.63;;
69985;SDS011;57328;52.054;5.294;2024-03-22T05:49:03;51.80;;;19.40;;
69985;SDS011;57328;52.054;5.294;2024-03-22T05:51:29;49.10;;;18.63;;
69985;SDS011;57328;52.054;5.294;2024-03-22T05:53:56;47.63;;;19.38;;
69985;SDS011;57328;52.054;5.294;2024-03-22T05:56:22;47.10;;;17.52;;
69985;SDS011;57328;52.054;5.294;2024-03-22T05:58:49;43.40;;;17.02;;
69985;SDS011;57328;52.054;5.294;2024-03-22T06:01:15;48.65;;;18.80;;
69985;SDS011;57328;52.054;5.294;2024-03-22T06:03:41;43.83;;;17.75;;
69985;SDS011;57328;52.054;5.294;2024-03-22T06:06:07;48.20;;;18.58;;
69985;SDS011;57328;52.054;5.294;2024-03-22T06:08:34;48.33;;;16.77;;
69985;SDS011;57328;52.054;5.294;2024-03-22T06:11:06;43.67;;;17.30;;
69985;SDS011;57328;52.054;5.294;2024-03-22T06:13:32;45.72;;;18.35;;
69985;SDS011;57328;52.054;5.294;2024-03-22T06:15:59;40.33;;;16.75;;
69985;SDS011;57328;52.054;5.294;2024-03-22T06:18:25;42.58;;;16.50;;
69985;SDS011;57328;52.054;5.294;2024-03-22T06:20:51;44.95;;;17.27;;
69985;SDS011;57328;52.054;5.294;2024-03-22T06:23:20;41.13;;;16.05;;
69985;SDS011;57328;52.054;5.294;2024-03-22T06:25:53;42.10;;;16.05;;
69985;SDS011;57328;52.054;5.294;2024-03-22T06:28:20;40.88;;;16.00;;
69985;SDS011;57328;52.054;5.294;2024-03-22T06:30:46;37.53;;;15.70;;
69985;SDS011;57328;52.054;5.294;2024-03-22T06:33:12;37.05;;;15.23;;
69985;SDS011;57328;52.054;5.294;2024-03-22T06:35:39;37.92;;;15.48;;
69985;SDS011;57328;52.054;5.294;2024-03-22T06:38:05;38.45;;;15.68;;
69985;SDS011;57328;52.054;5.294;2024-03-22T06:40:31;38.80;;;14.27;;
69985;SDS011;57328;52.054;5.294;2024-03-22T06:42:57;38.13;;;15.70;;
69985;SDS011;57328;52.054;5.294;2024-03-22T06:45:24;35.00;;;14.75;;
69985;SDS011;57328;52.054;5.294;2024-03-22T06:47:50;38.35;;;13.93;;
69985;SDS011;57328;52.054;5.294;2024-03-22T06:50:16;35.22;;;14.98;;
69985;SDS011;57328;52.054;5.294;2024-03-22T06:52:43;36.92;;;15.00;;
69985;SDS011;57328;52.054;5.294;2024-03-22T06:55:09;37.25;;;14.82;;
69985;SDS011;57328;52.054;5.294;2024-03-22T06:57:37;35.20;;;14.38;;
69985;SDS011;57328;52.054;5.294;2024-03-22T07:00:03;34.15;;;14.38;;
69985;SDS011;57328;52.054;5.294;2024-03-22T07:02:29;34.30;;;13.88;;
69985;SDS011;57328;52.054;5.294;2024-03-22T07:04:56;36.45;;;14.32;;
69985;SDS011;57328;52.054;5.294;2024-03-22T07:07:22;32.00;;;13.88;;
69985;SDS011;57328;52.054;5.294;2024-03-22T07:09:48;33.83;;;13.38;;
69985;SDS011;57328;52.054;5.294;2024-03-22T07:12:14;33.95;;;13.85;;
69985;SDS011;57328;52.054;5.294;2024-03-22T07:14:41;37.50;;;14.27;;
69985;SDS011;57328;52.054;5.294;2024-03-22T07:17:07;35.97;;;13.57;;
69985;SDS011;57328;52.054;5.294;2024-03-22T07:19:33;37.92;;;14.90;;
69985;SDS011;57328;52.054;5.294;2024-03-22T07:22:00;37.97;;;14.68;;
69985;SDS011;57328;52.054;5.294;2024-03-22T07:24:26;38.92;;;16.45;;
69985;SDS011;57328;52.054;5.294;2024-03-22T07:26:52;38.33;;;14.98;;
69985;SDS011;57328;52.054;5.294;2024-03-22T07:29:19;36.17;;;14.35;;
69985;SDS011;57328;52.054;5.294;2024-03-22T07:31:45;38.38;;;14.98;;
69985;SDS011;57328;52.054;5.294;2024-03-22T07:34:11;39.45;;;15.35;;
69985;SDS011;57328;52.054;5.294;2024-03-22T07:36:38;43.05;;;14.93;;
69985;SDS011;57328;52.054;5.294;2024-03-22T07:39:04;42.53;;;16.92;;
69985;SDS011;57328;52.054;5.294;2024-03-22T07:41:33;35.90;;;14.80;;
69985;SDS011;57328;52.054;5.294;2024-03-22T07:44:00;40.80;;;14.82;;
69985;SDS011;57328;52.054;5.294;2024-03-22T07:46:26;34.92;;;14.00;;
69985;SDS011;57328;52.054;5.294;2024-03-22T07:48:53;41.85;;;15.88;;
69985;SDS011;57328;52.054;5.294;2024-03-22T07:51:19;44.13;;;16.15;;
69985;SDS011;57328;52.054;5.294;2024-03-22T07:53:46;45.42;;;17.10;;
69985;SDS011;57328;52.054;5.294;2024-03-22T07:56:12;40.13;;;15.38;;
69985;SDS011;57328;52.054;5.294;2024-03-22T07:58:39;37.08;;;15.35;;
69985;SDS011;57328;52.054;5.294;2024-03-22T08:01:05;42.92;;;16.48;;
69985;SDS011;57328;52.054;5.294;2024-03-22T08:03:31;38.55;;;14.48;;
69985;SDS011;57328;52.054;5.294;2024-03-22T08:05:57;43.72;;;16.20;;
69985;SDS011;57328;52.054;5.294;2024-03-22T08:08:23;40.72;;;14.48;;
69985;SDS011;57328;52.054;5.294;2024-03-22T08:10:50;35.85;;;14.75;;
69985;SDS011;57328;52.054;5.294;2024-03-22T08:13:17;35.33;;;13.18;;
69985;SDS011;57328;52.054;5.294;2024-03-22T08:15:43;40.72;;;15.18;;
69985;SDS011;57328;52.054;5.294;2024-03-22T08:18:11;40.58;;;13.48;;
69985;SDS011;57328;52.054;5.294;2024-03-22T08:20:37;40.63;;;14.68;;
69985;SDS011;57328;52.054;5.294;2024-03-22T08:23:04;41.78;;;13.45;;
69985;SDS011;57328;52.054;5.294;2024-03-22T08:25:31;38.90;;;15.02;;
69985;SDS011;57328;52.054;5.294;2024-03-22T08:27:57;33.78;;;14.45;;
69985;SDS011;57328;52.054;5.294;2024-03-22T08:30:23;39.88;;;15.50;;
69985;SDS011;57328;52.054;5.294;2024-03-22T08:32:51;37.17;;;13.82;;
69985;SDS011;57328;52.054;5.294;2024-03-22T08:35:18;35.15;;;14.20;;
69985;SDS011;57328;52.054;5.294;2024-03-22T08:37:44;31.20;;;12.30;;
69985;SDS011;57328;52.054;5.294;2024-03-22T08:40:11;35.47;;;14.05;;
69985;SDS011;57328;52.054;5.294;2024-03-22T08:42:37;34.13;;;13.68;;
69985;SDS011;57328;52.054;5.294;2024-03-22T08:45:04;33.40;;;12.65;;
69985;SDS011;57328;52.054;5.294;2024-03-22T08:47:30;36.08;;;12.70;;
69985;SDS011;57328;52.054;5.294;2024-03-22T08:49:59;32.00;;;12.35;;
69985;SDS011;57328;52.054;5.294;2024-03-22T08:52:25;36.78;;;12.23;;
69985;SDS011;57328;52.054;5.294;2024-03-22T08:54:52;36.63;;;13.43;;
69985;SDS011;57328;52.054;5.294;2024-03-22T08:57:20;31.60;;;11.80;;
69985;SDS011;57328;52.054;5.294;2024-03-22T08:59:47;38.15;;;12.35;;
69985;SDS011;57328;52.054;5.294;2024-03-22T09:02:13;32.72;;;12.55;;
69985;SDS011;57328;52.054;5.294;2024-03-22T09:04:40;30.02;;;11.75;;
69985;SDS011;57328;52.054;5.294;2024-03-22T09:07:06;37.38;;;12.20;;
69985;SDS011;57328;52.054;5.294;2024-03-22T09:09:32;31.75;;;11.73;;
69985;SDS011;57328;52.054;5.294;2024-03-22T09:11:59;32.88;;;11.95;;
69985;SDS011;57328;52.054;5.294;2024-03-22T09:14:25;35.08;;;12.70;;
69985;SDS011;57328;52.054;5.294;2024-03-22T09:16:51;32.28;;;11.32;;
69985;SDS011;57328;52.054;5.294;2024-03-22T09:19:19;26.77;;;10.63;;
69985;SDS011;57328;52.054;5.294;2024-03-22T09:21:45;25.13;;;10.80;;
69985;SDS011;57328;52.054;5.294;2024-03-22T09:24:11;27.98;;;10.43;;
69985;SDS011;57328;52.054;5.294;2024-03-22T09:26:37;28.27;;;11.02;;
69985;SDS011;57328;52.054;5.294;2024-03-22T09:29:03;32.50;;;10.93;;
69985;SDS011;57328;52.054;5.294;2024-03-22T09:31:30;33.03;;;11.93;;
69985;SDS011;57328;52.054;5.294;2024-03-22T09:33:57;29.60;;;10.02;;
69985;SDS011;57328;52.054;5.294;2024-03-22T09:36:24;28.95;;;9.60;;
69985;SDS011;57328;52.054;5.294;2024-03-22T09:38:50;31.70;;;10.48;;
69985;SDS011;57328;52.054;5.294;2024-03-22T09:41:19;25.70;;;9.68;;
69985;SDS011;57328;52.054;5.294;2024-03-22T09:43:47;32.10;;;9.50;;
69985;SDS011;57328;52.054;5.294;2024-03-22T09:46:16;22.50;;;9.07;;
69985;SDS011;57328;52.054;5.294;2024-03-22T09:48:43;25.13;;;9.85;;
69985;SDS011;57328;52.054;5.294;2024-03-22T09:51:11;23.42;;;8.70;;
69985;SDS011;57328;52.054;5.294;2024-03-22T09:53:37;20.40;;;9.35;;
69985;SDS011;57328;52.054;5.294;2024-03-22T09:56:05;25.20;;;9.85;;
69985;SDS011;57328;52.054;5.294;2024-03-22T09:58:31;21.98;;;9.20;;
69985;SDS011;57328;52.054;5.294;2024-03-22T10:00:59;27.95;;;10.10;;
69985;SDS011;57328;52.054;5.294;2024-03-22T10:03:26;24.52;;;9.25;;
69985;SDS011;57328;52.054;5.294;2024-03-22T10:05:52;24.15;;;9.27;;
69985;SDS011;57328;52.054;5.294;2024-03-22T10:08:19;27.73;;;8.63;;
69985;SDS011;57328;52.054;5.294;2024-03-22T10:10:46;24.25;;;9.32;;
69985;SDS011;57328;52.054;5.294;2024-03-22T10:13:12;24.05;;;9.85;;
69985;SDS011;57328;52.054;5.294;2024-03-22T10:15:38;22.73;;;9.88;;
69985;SDS011;57328;52.054;5.294;2024-03-22T10:18:04;18.95;;;7.72;;
69985;SDS011;57328;52.054;5.294;2024-03-22T10:20:31;20.88;;;8.35;;
69985;SDS011;57328;52.054;5.294;2024-03-22T10:22:58;22.58;;;9.13;;
69985;SDS011;57328;52.054;5.294;2024-03-22T10:25:25;24.70;;;9.43;;
69985;SDS011;57328;52.054;5.294;2024-03-22T10:27:53;22.67;;;9.77;;
69985;SDS011;57328;52.054;5.294;2024-03-22T10:30:21;20.25;;;8.45;;
69985;SDS011;57328;52.054;5.294;2024-03-22T10:32:48;21.20;;;9.25;;
69985;SDS011;57328;52.054;5.294;2024-03-22T10:35:14;24.05;;;8.13;;
69985;SDS011;57328;52.054;5.294;2024-03-22T10:37:42;22.42;;;10.15;;
69985;SDS011;57328;52.054;5.294;2024-03-22T10:40:09;22.67;;;8.95;;
69985;SDS011;57328;52.054;5.294;2024-03-22T10:42:40;22.23;;;9.63;;
69985;SDS011;57328;52.054;5.294;2024-03-22T10:45:07;20.73;;;8.70;;
69985;SDS011;57328;52.054;5.294;2024-03-22T10:47:34;23.85;;;8.65;;
69985;SDS011;57328;52.054;5.294;2024-03-22T10:52:32;22.95;;;8.57;;
69985;SDS011;57328;52.054;5.294;2024-03-22T10:54:59;20.20;;;8.20;;
69985;SDS011;57328;52.054;5.294;2024-03-22T10:57:25;20.42;;;8.20;;
69985;SDS011;57328;52.054;5.294;2024-03-22T10:59:54;23.55;;;8.63;;
69985;SDS011;57328;52.054;5.294;2024-03-22T11:02:23;20.00;;;9.27;;
69985;SDS011;57328;52.054;5.294;2024-03-22T11:04:58;20.40;;;9.23;;
69985;SDS011;57328;52.054;5.294;2024-03-22T11:07:28;17.65;;;7.50;;
69985;SDS011;57328;52.054;5.294;2024-03-22T11:10:01;18.65;;;8.80;;
69985;SDS011;57328;52.054;5.294;2024-03-22T11:12:29;18.63;;;7.95;;
69985;SDS011;57328;52.054;5.294;2024-03-22T11:14:58;19.33;;;8.60;;
69985;SDS011;57328;52.054;5.294;2024-03-22T11:17:25;18.10;;;8.68;;
69985;SDS011;57328;52.054;5.294;2024-03-22T11:19:51;18.83;;;8.68;;
69985;SDS011;57328;52.054;5.294;2024-03-22T11:22:18;16.05;;;8.27;;
69985;SDS011;57328;52.054;5.294;2024-03-22T11:24:44;19.25;;;8.43;;
69985;SDS011;57328;52.054;5.294;2024-03-22T11:27:11;19.63;;;9.02;;
69985;SDS011;57328;52.054;5.294;2024-03-22T11:29:37;19.88;;;8.57;;
69985;SDS011;57328;52.054;5.294;2024-03-22T11:32:06;18.58;;;9.30;;
69985;SDS011;57328;52.054;5.294;2024-03-22T11:34:36;16.88;;;7.72;;
69985;SDS011;57328;52.054;5.294;2024-03-22T11:37:03;25.45;;;10.07;;
69985;SDS011;57328;52.054;5.294;2024-03-22T11:39:30;22.90;;;10.00;;
69985;SDS011;57328;52.054;5.294;2024-03-22T11:41:56;16.30;;;7.25;;
69985;SDS011;57328;52.054;5.294;2024-03-22T11:44:22;18.40;;;8.20;;
69985;SDS011;57328;52.054;5.294;2024-03-22T11:46:51;19.48;;;7.80;;
69985;SDS011;57328;52.054;5.294;2024-03-22T11:49:17;20.25;;;8.10;;
69985;SDS011;57328;52.054;5.294;2024-03-22T11:51:44;19.90;;;7.60;;
69985;SDS011;57328;52.054;5.294;2024-03-22T11:54:11;16.17;;;7.28;;
69985;SDS011;57328;52.054;5.294;2024-03-22T11:56:39;17.17;;;7.35;;
69985;SDS011;57328;52.054;5.294;2024-03-22T11:59:06;13.68;;;6.18;;
69985;SDS011;57328;52.054;5.294;2024-03-22T12:01:32;8.95;;;4.95;;
69985;SDS011;57328;52.054;5.294;2024-03-22T12:03:59;10.75;;;5.20;;
69985;SDS011;57328;52.054;5.294;2024-03-22T12:06:25;11.95;;;5.75;;
69985;SDS011;57328;52.054;5.294;2024-03-22T12:08:51;11.27;;;5.68;;
69985;SDS011;57328;52.054;5.294;2024-03-22T12:11:17;11.25;;;4.95;;
69985;SDS011;57328;52.054;5.294;2024-03-22T12:13:44;12.40;;;5.03;;
69985;SDS011;57328;52.054;5.294;2024-03-22T12:16:10;11.18;;;5.20;;
69985;SDS011;57328;52.054;5.294;2024-03-22T12:18:36;10.93;;;4.95;;
69985;SDS011;57328;52.054;5.294;2024-03-22T12:21:02;11.07;;;6.10;;
69985;SDS011;57328;52.054;5.294;2024-03-22T12:23:29;11.40;;;4.55;;
69985;SDS011;57328;52.054;5.294;2024-03-22T12:25:55;12.07;;;4.88;;
69985;SDS011;57328;52.054;5.294;2024-03-22T12:28:21;10.30;;;5.43;;
69985;SDS011;57328;52.054;5.294;2024-03-22T12:30:49;9.02;;;4.63;;
69985;SDS011;57328;52.054;5.294;2024-03-22T12:33:15;11.82;;;5.13;;
69985;SDS011;57328;52.054;5.294;2024-03-22T12:35:42;12.73;;;4.65;;
69985;SDS011;57328;52.054;5.294;2024-03-22T12:38:08;13.35;;;5.05;;
69985;SDS011;57328;52.054;5.294;2024-03-22T12:40:37;11.43;;;4.72;;
69985;SDS011;57328;52.054;5.294;2024-03-22T12:43:04;12.52;;;5.65;;
69985;SDS011;57328;52.054;5.294;2024-03-22T12:45:30;12.18;;;5.43;;
69985;SDS011;57328;52.054;5.294;2024-03-22T12:47:58;11.82;;;5.43;;
69985;SDS011;57328;52.054;5.294;2024-03-22T12:50:24;13.48;;;5.70;;
69985;SDS011;57328;52.054;5.294;2024-03-22T12:52:51;15.98;;;6.43;;
69985;SDS011;57328;52.054;5.294;2024-03-22T12:55:17;16.58;;;6.32;;
69985;SDS011;57328;52.054;5.294;2024-03-22T12:57:43;15.38;;;5.93;;
69985;SDS011;57328;52.054;5.294;2024-03-22T13:00:09;18.17;;;7.22;;
69985;SDS011;57328;52.054;5.294;2024-03-22T13:02:44;17.85;;;6.63;;
69985;SDS011;57328;52.054;5.294;2024-03-22T13:05:10;16.30;;;6.82;;
69985;SDS011;57328;52.054;5.294;2024-03-22T13:07:36;16.33;;;6.57;;
69985;SDS011;57328;52.054;5.294;2024-03-22T13:10:03;13.82;;;4.65;;
69985;SDS011;57328;52.054;5.294;2024-03-22T13:12:29;16.17;;;6.55;;
69985;SDS011;57328;52.054;5.294;2024-03-22T13:15:02;15.60;;;6.68;;
69985;SDS011;57328;52.054;5.294;2024-03-22T13:17:29;15.15;;;6.05;;
69985;SDS011;57328;52.054;5.294;2024-03-22T13:19:56;15.45;;;6.00;;
69985;SDS011;57328;52.054;5.294;2024-03-22T13:22:22;17.13;;;6.40;;
69985;SDS011;57328;52.054;5.294;2024-03-22T13:24:48;17.13;;;6.68;;
69985;SDS011;57328;52.054;5.294;2024-03-22T13:27:15;14.10;;;5.45;;
69985;SDS011;57328;52.054;5.294;2024-03-22T13:29:42;18.42;;;5.97;;
69985;SDS011;57328;52.054;5.294;2024-03-22T13:32:08;12.63;;;4.88;;
69985;SDS011;57328;52.054;5.294;2024-03-22T13:34:38;13.55;;;4.95;;
69985;SDS011;57328;52.054;5.294;2024-03-22T13:37:04;16.92;;;5.50;;
69985;SDS011;57328;52.054;5.294;2024-03-22T13:39:34;12.38;;;5.78;;
69985;SDS011;57328;52.054;5.294;2024-03-22T13:42:01;17.65;;;5.90;;
69985;SDS011;57328;52.054;5.294;2024-03-22T13:44:27;12.43;;;5.10;;
69985;SDS011;57328;52.054;5.294;2024-03-22T13:46:54;12.38;;;5.18;;
69985;SDS011;57328;52.054;5.294;2024-03-22T13:49:20;15.13;;;5.65;;
69985;SDS011;57328;52.054;5.294;2024-03-22T13:51:47;11.85;;;5.10;;
69985;SDS011;57328;52.054;5.294;2024-03-22T13:54:14;13.98;;;4.90;;
69985;SDS011;57328;52.054;5.294;2024-03-22T13:56:40;13.32;;;5.47;;
69985;SDS011;57328;52.054;5.294;2024-03-22T13:59:06;14.15;;;5.00;;
69985;SDS011;57328;52.054;5.294;2024-03-22T14:01:36;14.85;;;5.15;;
69985;SDS011;57328;52.054;5.294;2024-03-22T14:04:05;14.18;;;5.15;;
69985;SDS011;57328;52.054;5.294;2024-03-22T14:06:32;14.00;;;5.35;;
69985;SDS011;57328;52.054;5.294;2024-03-22T14:08:58;17.73;;;5.43;;
69985;SDS011;57328;52.054;5.294;2024-03-22T14:11:30;15.63;;;5.95;;
69985;SDS011;57328;52.054;5.294;2024-03-22T14:13:56;14.98;;;6.20;;
69985;SDS011;57328;52.054;5.294;2024-03-22T14:16:23;18.90;;;6.18;;
69985;SDS011;57328;52.054;5.294;2024-03-22T14:18:49;18.73;;;6.78;;
69985;SDS011;57328;52.054;5.294;2024-03-22T14:21:16;16.95;;;6.20;;
69985;SDS011;57328;52.054;5.294;2024-03-22T14:23:45;18.85;;;7.45;;
69985;SDS011;57328;52.054;5.294;2024-03-22T14:26:12;17.65;;;6.82;;
69985;SDS011;57328;52.054;5.294;2024-03-22T14:28:38;19.92;;;7.15;;